createdAt,value
2023-04-30T00:00:24.756Z,11.36
2023-04-30T00:02:51.311Z,11.31
2023-04-30T00:05:18.209Z,11.31
2023-04-30T00:07:44.704Z,11.27
2023-04-30T00:10:11.357Z,11.20
2023-04-30T00:12:38.238Z,11.19
2023-04-30T00:15:05.163Z,11.16
2023-04-30T00:17:31.769Z,11.14
2023-04-30T00:19:58.322Z,11.09
2023-04-30T00:22:24.870Z,11.09
2023-04-30T00:24:51.911Z,11.04
2023-04-30T00:27:18.453Z,11.07
2023-04-30T00:29:45.006Z,11.05
2023-04-30T00:32:11.529Z,11.06
2023-04-30T00:34:38.111Z,11.04
2023-04-30T00:37:04.647Z,11.02
2023-04-30T00:39:31.353Z,10.98
2023-04-30T00:41:57.975Z,11.00
2023-04-30T00:44:24.510Z,10.96
2023-04-30T00:46:50.967Z,10.95
2023-04-30T00:49:17.646Z,10.94
2023-04-30T00:51:45.672Z,10.91
2023-04-30T00:54:12.986Z,10.89
2023-04-30T00:56:39.791Z,10.86
2023-04-30T00:59:06.406Z,10.85
2023-04-30T01:01:33.336Z,10.80
2023-04-30T01:04:00.956Z,10.79
2023-04-30T01:06:28.154Z,10.79
2023-04-30T01:08:54.976Z,10.74
2023-04-30T01:11:31.884Z,10.70
2023-04-30T01:14:03.885Z,10.69
2023-04-30T01:16:36.214Z,10.66
2023-04-30T01:19:11.704Z,10.64
2023-04-30T01:21:42.113Z,10.61
2023-04-30T01:24:30.235Z,10.64
2023-04-30T01:27:06.945Z,10.56
2023-04-30T01:29:35.898Z,10.52
2023-04-30T01:32:03.617Z,10.51
2023-04-30T01:34:30.511Z,10.50
2023-04-30T01:37:31.269Z,10.54
2023-04-30T01:40:00.742Z,10.43
2023-04-30T01:42:54.417Z,10.47
2023-04-30T01:45:41.600Z,10.35
2023-04-30T01:48:56.148Z,10.42
2023-04-30T01:51:27.547Z,10.31
2023-04-30T01:53:57.929Z,10.27
2023-04-30T01:56:32.502Z,10.24
2023-04-30T01:59:00.700Z,10.21
2023-04-30T02:01:28.882Z,10.17
2023-04-30T02:03:55.817Z,10.16
2023-04-30T02:06:31.352Z,10.10
2023-04-30T02:09:03.188Z,10.10
2023-04-30T02:11:30.307Z,10.22
2023-04-30T02:13:57.084Z,10.07
2023-04-30T02:16:24.384Z,10.05
2023-04-30T02:18:51.580Z,10.03
2023-04-30T02:21:18.418Z,10.04
2023-04-30T02:23:45.268Z,10.03
2023-04-30T02:26:11.749Z,10.02
2023-04-30T02:28:38.346Z,10.01
2023-04-30T02:31:04.964Z,10.01
2023-04-30T02:33:31.661Z,10.01
2023-04-30T02:36:00.028Z,9.98
2023-04-30T02:38:26.732Z,9.99
2023-04-30T02:40:53.345Z,9.99
2023-04-30T02:43:20.967Z,9.96
2023-04-30T02:45:47.646Z,9.94
2023-04-30T02:48:14.675Z,9.91
2023-04-30T02:50:41.212Z,9.92
2023-04-30T02:53:07.832Z,9.90
2023-04-30T02:55:34.403Z,9.89
2023-04-30T02:58:01.070Z,9.87
2023-04-30T03:00:27.688Z,9.84
2023-04-30T03:02:54.453Z,9.81
2023-04-30T03:05:21.095Z,9.77
2023-04-30T03:07:47.624Z,9.74
2023-04-30T03:10:14.191Z,9.73
2023-04-30T03:12:41.182Z,9.73
2023-04-30T03:15:08.309Z,9.69
2023-04-30T03:17:35.901Z,9.69
2023-04-30T03:20:02.628Z,9.66
2023-04-30T03:22:29.189Z,9.61
2023-04-30T03:24:55.933Z,9.58
2023-04-30T03:27:22.786Z,9.47
2023-04-30T03:29:49.285Z,9.48
2023-04-30T03:32:16.000Z,9.48
2023-04-30T03:34:42.570Z,9.47
2023-04-30T03:37:09.215Z,9.46
2023-04-30T03:39:35.899Z,9.45
2023-04-30T03:42:03.596Z,9.41
2023-04-30T03:44:30.192Z,9.40
2023-04-30T03:46:56.775Z,9.36
2023-04-30T03:49:23.373Z,9.34
2023-04-30T03:51:49.914Z,9.30
2023-04-30T03:54:17.322Z,9.27
2023-04-30T03:56:44.360Z,9.23
2023-04-30T03:59:11.060Z,9.23
2023-04-30T04:01:37.757Z,9.20
2023-04-30T04:04:04.623Z,9.16
2023-04-30T04:06:32.837Z,9.14
2023-04-30T04:08:59.430Z,9.14
2023-04-30T04:11:26.269Z,9.04
2023-04-30T04:13:52.998Z,9.07
2023-04-30T04:16:19.621Z,9.07
2023-04-30T04:18:46.516Z,9.07
2023-04-30T04:21:13.088Z,9.08
2023-04-30T04:23:39.699Z,9.03
2023-04-30T04:26:06.291Z,9.02
2023-04-30T04:28:32.883Z,9.02
2023-04-30T04:30:59.586Z,9.02
2023-04-30T04:33:26.175Z,9.00
2023-04-30T04:35:52.915Z,9.00
2023-04-30T04:38:19.527Z,8.98
2023-04-30T04:40:53.374Z,8.93
2023-04-30T04:43:20.686Z,8.93
2023-04-30T04:45:48.032Z,8.96
2023-04-30T04:48:15.061Z,8.99
2023-04-30T04:50:41.919Z,8.98
2023-04-30T04:53:08.523Z,8.99
2023-04-30T04:55:35.789Z,9.01
2023-04-30T04:58:02.515Z,9.01
2023-04-30T05:00:29.898Z,9.02
2023-04-30T05:02:56.879Z,8.98
2023-04-30T05:05:23.489Z,9.02
2023-04-30T05:07:52.324Z,9.07
2023-04-30T05:10:19.216Z,9.01
2023-04-30T05:12:46.092Z,9.12
2023-04-30T05:15:12.685Z,9.13
2023-04-30T05:17:39.250Z,9.13
2023-04-30T05:20:07.233Z,9.15
2023-04-30T05:22:33.786Z,9.17
2023-04-30T05:25:00.356Z,9.21
2023-04-30T05:27:27.587Z,9.23
2023-04-30T05:29:54.432Z,9.23
2023-04-30T05:32:22.799Z,9.27
2023-04-30T05:34:49.799Z,9.28
2023-04-30T05:37:17.689Z,9.27
2023-04-30T05:39:44.248Z,9.27
2023-04-30T05:42:10.764Z,9.27
2023-04-30T05:44:37.277Z,9.29
2023-04-30T05:47:03.828Z,9.35
2023-04-30T05:49:30.406Z,9.40
2023-04-30T05:51:57.398Z,9.44
2023-04-30T05:54:23.885Z,9.46
2023-04-30T05:56:50.469Z,9.48
2023-04-30T05:59:16.981Z,9.51
2023-04-30T06:01:44.292Z,9.52
2023-04-30T06:04:11.674Z,9.55
2023-04-30T06:06:38.266Z,9.63
2023-04-30T06:09:05.025Z,9.64
2023-04-30T06:11:31.631Z,9.67
2023-04-30T06:13:58.525Z,9.69
2023-04-30T06:16:25.202Z,9.68
2023-04-30T06:18:53.561Z,9.71
2023-04-30T06:21:20.770Z,9.75
2023-04-30T06:23:47.294Z,9.83
2023-04-30T06:26:15.241Z,9.85
2023-04-30T06:28:41.828Z,9.87
2023-04-30T06:31:08.503Z,9.91
2023-04-30T06:33:35.028Z,9.95
2023-04-30T06:36:01.582Z,9.97
2023-04-30T06:38:28.857Z,10.02
2023-04-30T06:40:55.438Z,10.05
2023-04-30T06:43:21.992Z,10.07
2023-04-30T06:45:48.493Z,10.11
2023-04-30T06:48:15.048Z,10.14
2023-04-30T06:50:44.963Z,10.19
2023-04-30T06:53:12.429Z,10.19
2023-04-30T06:55:38.996Z,10.23
2023-04-30T06:58:05.908Z,10.25
2023-04-30T07:00:32.955Z,10.29
2023-04-30T07:03:03.845Z,10.33
2023-04-30T07:05:31.219Z,10.37
2023-04-30T07:07:58.750Z,10.40
2023-04-30T07:10:26.187Z,10.42
2023-04-30T07:12:52.871Z,10.45
2023-04-30T07:15:19.785Z,10.47
2023-04-30T07:17:46.360Z,10.51
2023-04-30T07:20:14.715Z,10.57
2023-04-30T07:22:45.878Z,10.61
2023-04-30T07:25:13.254Z,10.66
2023-04-30T07:27:40.822Z,10.66
2023-04-30T07:30:10.120Z,10.70
2023-04-30T07:32:37.965Z,10.72
2023-04-30T07:35:04.921Z,10.76
2023-04-30T07:37:33.019Z,10.77
2023-04-30T07:40:01.562Z,10.84
2023-04-30T07:42:28.114Z,10.88
2023-04-30T07:44:54.815Z,10.91
2023-04-30T07:47:21.420Z,10.95
2023-04-30T07:49:47.986Z,11.01
2023-04-30T07:52:14.538Z,11.05
2023-04-30T07:54:41.245Z,11.09
2023-04-30T07:57:07.827Z,11.11
2023-04-30T07:59:34.416Z,11.19
2023-04-30T08:02:01.537Z,11.23
2023-04-30T08:04:28.192Z,11.30
2023-04-30T08:06:54.769Z,11.33
2023-04-30T08:09:21.266Z,11.35
2023-04-30T08:11:47.754Z,11.36
2023-04-30T08:14:14.342Z,11.40
2023-04-30T08:16:41.089Z,11.45
2023-04-30T08:19:07.709Z,11.47
2023-04-30T08:21:34.318Z,11.52
2023-04-30T08:24:00.895Z,11.58
2023-04-30T08:26:27.386Z,11.62
2023-04-30T08:28:53.971Z,11.68
2023-04-30T08:31:20.760Z,11.72
2023-04-30T08:33:47.329Z,11.81
2023-04-30T08:36:13.894Z,11.86
2023-04-30T08:38:40.900Z,11.87
2023-04-30T08:41:13.057Z,11.89
2023-04-30T08:43:40.693Z,11.98
2023-04-30T08:46:08.003Z,12.02
2023-04-30T08:48:34.865Z,12.13
2023-04-30T08:51:02.439Z,12.16
2023-04-30T08:53:35.309Z,12.25
2023-04-30T08:56:01.950Z,12.28
2023-04-30T08:58:28.445Z,12.31
2023-04-30T09:00:55.010Z,12.36
2023-04-30T09:03:23.668Z,12.44
2023-04-30T09:05:50.331Z,12.48
2023-04-30T09:08:19.064Z,12.54
2023-04-30T09:10:46.445Z,12.58
2023-04-30T09:13:13.875Z,12.64
2023-04-30T09:15:41.670Z,12.71
2023-04-30T09:18:10.849Z,12.75
2023-04-30T09:20:38.626Z,12.78
2023-04-30T09:23:08.005Z,12.83
2023-04-30T09:25:43.814Z,12.94
2023-04-30T09:28:11.969Z,12.94
2023-04-30T09:30:39.578Z,12.96
2023-04-30T09:33:08.358Z,12.98
2023-04-30T09:35:44.391Z,13.02
2023-04-30T09:38:30.991Z,13.14
2023-04-30T09:41:01.843Z,13.19
2023-04-30T09:43:29.640Z,13.22
2023-04-30T09:45:58.844Z,13.32
2023-04-30T09:48:29.848Z,13.35
2023-04-30T09:50:56.756Z,13.47
2023-04-30T09:53:23.785Z,13.45
2023-04-30T09:55:51.566Z,13.49
2023-04-30T09:58:19.470Z,13.56
2023-04-30T10:00:48.319Z,13.56
2023-04-30T10:03:16.045Z,13.60
2023-04-30T10:05:47.125Z,13.70
2023-04-30T10:08:22.061Z,13.75
2023-04-30T10:10:53.453Z,13.80
2023-04-30T10:13:21.083Z,13.92
2023-04-30T10:15:54.191Z,13.98
2023-04-30T10:18:30.716Z,14.05
2023-04-30T10:20:59.278Z,14.08
2023-04-30T10:23:25.973Z,14.12
2023-04-30T10:25:53.376Z,14.25
2023-04-30T10:28:20.178Z,14.30
2023-04-30T10:30:47.659Z,14.31
2023-04-30T10:33:31.740Z,14.45
2023-04-30T10:36:08.132Z,14.46
2023-04-30T10:38:36.149Z,14.53
2023-04-30T10:41:06.148Z,14.53
2023-04-30T10:43:35.758Z,14.56
2023-04-30T10:46:02.842Z,14.63
2023-04-30T10:48:31.167Z,14.67
2023-04-30T10:50:59.569Z,14.76
2023-04-30T10:53:30.246Z,14.86
2023-04-30T10:56:06.417Z,14.85
2023-04-30T10:58:35.416Z,14.92
2023-04-30T11:01:05.221Z,15.02
2023-04-30T11:03:34.137Z,15.12
2023-04-30T11:06:03.921Z,15.19
2023-04-30T11:08:38.335Z,15.27
2023-04-30T11:11:05.358Z,15.31
2023-04-30T11:14:01.731Z,15.48
2023-04-30T11:16:34.295Z,15.48
2023-04-30T11:19:11.687Z,15.59
2023-04-30T11:21:42.347Z,15.59
2023-04-30T11:24:08.981Z,15.68
2023-04-30T11:27:05.386Z,15.77
2023-04-30T11:29:32.095Z,15.71
2023-04-30T11:32:01.256Z,15.79
2023-04-30T11:34:28.936Z,15.86
2023-04-30T11:37:00.130Z,15.92
2023-04-30T11:39:29.095Z,15.97
2023-04-30T11:41:55.859Z,16.07
2023-04-30T11:44:23.952Z,16.15
2023-04-30T11:46:51.517Z,16.24
2023-04-30T11:49:18.290Z,16.28
2023-04-30T11:51:48.780Z,16.30
2023-04-30T11:54:15.972Z,16.35
2023-04-30T11:56:50.051Z,16.42
2023-04-30T11:59:17.785Z,16.47
2023-04-30T12:01:44.665Z,16.55
2023-04-30T12:04:11.507Z,16.56
2023-04-30T12:06:38.276Z,16.61
2023-04-30T12:09:07.209Z,16.61
2023-04-30T12:11:35.168Z,16.70
2023-04-30T12:14:14.600Z,16.75
2023-04-30T12:16:42.690Z,16.77
2023-04-30T12:19:09.586Z,16.85
2023-04-30T12:21:36.629Z,16.98
2023-04-30T12:24:03.641Z,17.02
2023-04-30T12:26:40.601Z,17.17
2023-04-30T12:29:16.021Z,17.25
2023-04-30T12:31:43.462Z,17.33
2023-04-30T12:34:13.079Z,17.33
2023-04-30T12:36:44.229Z,17.31
2023-04-30T12:39:13.000Z,17.26
2023-04-30T12:41:43.974Z,17.15
2023-04-30T12:44:14.408Z,17.27
2023-04-30T12:46:41.253Z,17.33
2023-04-30T12:49:07.971Z,17.47
2023-04-30T12:51:41.019Z,17.44
2023-04-30T12:54:07.892Z,17.49
2023-04-30T12:56:34.433Z,17.42
2023-04-30T12:59:01.031Z,17.34
2023-04-30T13:01:27.657Z,17.29
2023-04-30T13:03:54.441Z,17.40
2023-04-30T13:06:23.225Z,17.58
2023-04-30T13:08:58.530Z,17.65
2023-04-30T13:11:26.735Z,17.56
2023-04-30T13:13:55.303Z,17.48
2023-04-30T13:16:22.756Z,17.34
2023-04-30T13:18:49.499Z,17.38
2023-04-30T13:21:15.970Z,17.49
2023-04-30T13:23:52.036Z,17.51
2023-04-30T13:26:21.268Z,17.58
2023-04-30T13:28:47.874Z,17.66
2023-04-30T13:31:14.521Z,17.79
2023-04-30T13:33:41.577Z,17.92
2023-04-30T13:36:08.296Z,18.09
2023-04-30T13:38:34.828Z,18.02
2023-04-30T13:41:01.349Z,17.95
2023-04-30T13:43:27.872Z,17.93
2023-04-30T13:45:54.365Z,17.86
2023-04-30T13:48:20.896Z,17.82
2023-04-30T13:50:47.456Z,17.87
2023-04-30T13:53:14.214Z,18.00
2023-04-30T13:55:40.840Z,18.22
2023-04-30T13:58:07.331Z,18.35
2023-04-30T14:00:33.896Z,18.42
2023-04-30T14:03:00.471Z,18.52
2023-04-30T14:05:27.362Z,18.52
2023-04-30T14:07:53.875Z,18.45
2023-04-30T14:10:20.437Z,18.34
2023-04-30T14:12:48.046Z,18.48
2023-04-30T14:15:14.792Z,18.57
2023-04-30T14:17:41.342Z,18.68
2023-04-30T14:20:08.720Z,18.82
2023-04-30T14:22:38.291Z,18.95
2023-04-30T14:25:05.835Z,19.08
2023-04-30T14:27:32.357Z,19.19
2023-04-30T14:29:58.856Z,19.25
2023-04-30T14:32:26.118Z,19.37
2023-04-30T14:34:53.228Z,19.45
2023-04-30T14:37:20.223Z,19.51
2023-04-30T14:39:46.699Z,19.51
2023-04-30T14:42:15.129Z,19.61
2023-04-30T14:44:41.849Z,19.70
2023-04-30T14:47:08.342Z,19.68
2023-04-30T14:49:34.925Z,19.65
2023-04-30T14:52:01.832Z,19.65
2023-04-30T14:54:28.411Z,19.81
2023-04-30T14:56:55.202Z,19.79
2023-04-30T14:59:21.951Z,19.74
2023-04-30T15:01:48.591Z,19.73
2023-04-30T15:04:15.109Z,19.79
2023-04-30T15:06:42.104Z,19.92
2023-04-30T15:09:08.754Z,19.86
2023-04-30T15:11:35.277Z,19.78
2023-04-30T15:14:01.785Z,19.66
2023-04-30T15:16:29.676Z,19.62
2023-04-30T15:18:56.589Z,19.49
2023-04-30T15:21:23.156Z,19.32
2023-04-30T15:23:50.484Z,19.23
2023-04-30T15:26:17.132Z,19.18
2023-04-30T15:28:44.262Z,19.27
2023-04-30T15:31:11.428Z,19.29
2023-04-30T15:33:41.885Z,19.47
2023-04-30T15:36:10.575Z,19.72
2023-04-30T15:38:37.059Z,19.86
2023-04-30T15:41:03.562Z,20.04
2023-04-30T15:43:32.233Z,20.12
2023-04-30T15:45:58.871Z,20.18
2023-04-30T15:48:25.606Z,20.24
2023-04-30T15:50:52.221Z,20.43
2023-04-30T15:53:18.718Z,20.62
2023-04-30T15:55:46.559Z,20.75
2023-04-30T15:58:13.136Z,20.72
2023-04-30T16:00:39.809Z,20.52
2023-04-30T16:03:06.579Z,20.41
2023-04-30T16:05:35.003Z,20.36
2023-04-30T16:08:01.517Z,20.40
2023-04-30T16:10:28.911Z,20.54
2023-04-30T16:12:55.460Z,20.63
2023-04-30T16:15:22.114Z,20.77
2023-04-30T16:17:48.725Z,20.83
2023-04-30T16:20:15.914Z,20.84
2023-04-30T16:22:42.494Z,21.02
2023-04-30T16:25:10.189Z,21.14
2023-04-30T16:27:37.519Z,21.32
2023-04-30T16:30:05.627Z,21.47
2023-04-30T16:32:32.305Z,21.52
2023-04-30T16:34:59.075Z,21.41
2023-04-30T16:37:26.465Z,21.33
2023-04-30T16:39:53.329Z,21.31
2023-04-30T16:42:20.358Z,21.19
2023-04-30T16:44:46.888Z,20.98
2023-04-30T16:47:13.425Z,20.81
2023-04-30T16:49:39.978Z,20.61
2023-04-30T16:52:07.293Z,20.43
2023-04-30T16:54:33.816Z,20.40
2023-04-30T16:57:00.616Z,20.32
2023-04-30T16:59:27.143Z,20.33
2023-04-30T17:01:56.311Z,20.40
2023-04-30T17:04:22.829Z,20.41
2023-04-30T17:06:49.436Z,20.41
2023-04-30T17:09:16.688Z,20.30
2023-04-30T17:11:43.282Z,20.26
2023-04-30T17:14:09.800Z,20.21
2023-04-30T17:16:36.555Z,20.26
2023-04-30T17:19:03.231Z,20.26
2023-04-30T17:21:30.139Z,20.42
2023-04-30T17:23:56.932Z,20.62
2023-04-30T17:26:24.762Z,20.64
2023-04-30T17:28:51.369Z,20.64
2023-04-30T17:31:19.066Z,20.60
2023-04-30T17:33:46.332Z,20.53
2023-04-30T17:36:13.254Z,20.50
2023-04-30T17:38:39.797Z,20.38
2023-04-30T17:41:06.618Z,20.31
2023-04-30T17:43:33.158Z,20.23
2023-04-30T17:45:59.784Z,20.15
2023-04-30T17:48:26.728Z,20.08
2023-04-30T17:50:53.972Z,19.98
2023-04-30T17:53:20.621Z,19.90
2023-04-30T17:55:47.195Z,19.82
2023-04-30T17:58:13.967Z,19.74
2023-04-30T18:00:43.176Z,19.63
2023-04-30T18:03:09.801Z,19.58
2023-04-30T18:05:36.487Z,19.52
2023-04-30T18:08:03.316Z,19.48
2023-04-30T18:10:29.854Z,19.43
2023-04-30T18:12:58.896Z,19.35
2023-04-30T18:15:25.948Z,19.29
2023-04-30T18:17:52.916Z,19.20
2023-04-30T18:20:20.074Z,19.19
2023-04-30T18:22:46.614Z,19.16
2023-04-30T18:25:13.561Z,19.08
2023-04-30T18:27:40.972Z,18.96
2023-04-30T18:30:09.287Z,18.91
2023-04-30T18:32:37.174Z,18.89
2023-04-30T18:35:04.571Z,18.86
2023-04-30T18:37:31.846Z,18.84
2023-04-30T18:39:59.049Z,18.81
2023-04-30T18:42:25.735Z,18.76
2023-04-30T18:44:52.379Z,18.67
2023-04-30T18:47:19.063Z,18.65
2023-04-30T18:49:45.593Z,18.63
2023-04-30T18:52:12.258Z,18.58
2023-04-30T18:54:38.773Z,18.57
2023-04-30T18:57:05.773Z,18.50
2023-04-30T18:59:32.288Z,18.44
2023-04-30T19:01:59.139Z,18.42
2023-04-30T19:04:26.305Z,18.33
2023-04-30T19:06:54.827Z,18.34
2023-04-30T19:09:21.603Z,18.31
2023-04-30T19:11:48.897Z,18.23
2023-04-30T19:14:15.439Z,18.24
2023-04-30T19:16:42.019Z,18.21
2023-04-30T19:19:08.551Z,18.18
2023-04-30T19:21:36.250Z,18.02
2023-04-30T19:24:03.485Z,18.07
2023-04-30T19:26:32.161Z,18.05
2023-04-30T19:28:59.789Z,18.02
2023-04-30T19:31:26.700Z,17.99
2023-04-30T19:33:53.285Z,17.95
2023-04-30T19:36:19.893Z,17.93
2023-04-30T19:38:46.384Z,17.91
2023-04-30T19:41:12.888Z,17.84
2023-04-30T19:43:39.429Z,17.80
2023-04-30T19:46:06.126Z,17.74
2023-04-30T19:48:32.841Z,17.76
2023-04-30T19:51:02.414Z,17.70
2023-04-30T19:53:29.077Z,17.67
2023-04-30T19:55:55.706Z,17.59
2023-04-30T19:58:22.236Z,17.57
2023-04-30T20:00:48.899Z,17.57
2023-04-30T20:03:16.762Z,17.53
2023-04-30T20:05:44.659Z,17.45
2023-04-30T20:08:11.288Z,17.47
2023-04-30T20:10:38.505Z,17.41
2023-04-30T20:13:06.267Z,17.41
2023-04-30T20:15:33.650Z,17.41
2023-04-30T20:18:01.285Z,17.36
2023-04-30T20:20:28.921Z,17.29
2023-04-30T20:22:56.197Z,17.29
2023-04-30T20:25:25.695Z,17.26
2023-04-30T20:27:52.162Z,17.24
2023-04-30T20:30:18.755Z,17.19
2023-04-30T20:32:45.480Z,17.10
2023-04-30T20:35:12.100Z,17.06
2023-04-30T20:37:38.588Z,17.06
2023-04-30T20:40:08.045Z,17.06
2023-04-30T20:42:34.835Z,17.04
2023-04-30T20:45:03.821Z,17.01
2023-04-30T20:47:31.896Z,16.95
2023-04-30T20:49:58.719Z,16.93
2023-04-30T20:52:26.117Z,16.94
2023-04-30T20:54:52.760Z,16.92
2023-04-30T20:57:19.316Z,16.88
2023-04-30T20:59:45.908Z,16.83
2023-04-30T21:02:12.519Z,16.80
2023-04-30T21:04:39.060Z,16.77
2023-04-30T21:07:05.689Z,16.76
2023-04-30T21:09:34.480Z,16.70
2023-04-30T21:12:04.307Z,16.66
2023-04-30T21:14:31.636Z,16.67
2023-04-30T21:16:59.268Z,16.65
2023-04-30T21:19:26.497Z,16.65
2023-04-30T21:21:53.166Z,16.62
2023-04-30T21:24:19.788Z,16.56
2023-04-30T21:26:46.608Z,16.56
2023-04-30T21:29:13.285Z,16.53
2023-04-30T21:31:39.773Z,16.50
2023-04-30T21:34:06.333Z,16.46
2023-04-30T21:36:32.990Z,16.46
2023-04-30T21:38:59.595Z,16.45
2023-04-30T21:41:27.940Z,16.45
2023-04-30T21:43:55.015Z,16.41
2023-04-30T21:46:22.665Z,16.43
2023-04-30T21:48:49.356Z,16.37
2023-04-30T21:51:17.124Z,16.32
2023-04-30T21:53:46.581Z,16.30
2023-04-30T21:56:13.485Z,16.30
2023-04-30T21:58:39.956Z,16.26
2023-04-30T22:01:06.648Z,16.12
2023-04-30T22:03:34.201Z,16.17
2023-04-30T22:06:01.293Z,16.10
2023-04-30T22:08:28.576Z,16.11
2023-04-30T22:10:58.409Z,16.05
2023-04-30T22:13:26.219Z,16.05
2023-04-30T22:15:52.854Z,16.06
2023-04-30T22:18:20.444Z,16.04
2023-04-30T22:20:49.241Z,15.97
2023-04-30T22:23:16.551Z,15.99
2023-04-30T22:25:43.234Z,15.99
2023-04-30T22:28:10.165Z,15.96
2023-04-30T22:30:37.748Z,15.93
2023-04-30T22:33:04.376Z,15.89
2023-04-30T22:35:31.669Z,15.82
2023-04-30T22:37:58.621Z,15.85
2023-04-30T22:40:25.234Z,15.80
2023-04-30T22:42:51.904Z,15.81
2023-04-30T22:45:18.514Z,15.77
2023-04-30T22:47:45.834Z,15.72
2023-04-30T22:50:12.514Z,15.71
2023-04-30T22:52:39.115Z,15.66
2023-04-30T22:55:06.527Z,15.67
2023-04-30T22:57:33.172Z,15.66
2023-04-30T22:59:59.756Z,15.65
2023-04-30T23:02:26.466Z,15.62
2023-04-30T23:04:53.026Z,15.60
2023-04-30T23:07:19.684Z,15.59
2023-04-30T23:09:46.223Z,15.57
2023-04-30T23:12:12.835Z,15.55
2023-04-30T23:14:39.357Z,15.56
2023-04-30T23:17:06.227Z,15.55
2023-04-30T23:19:33.450Z,15.54
2023-04-30T23:21:59.939Z,15.49
2023-04-30T23:24:26.426Z,15.56
2023-04-30T23:26:52.959Z,15.56
2023-04-30T23:29:19.675Z,15.56
2023-04-30T23:31:46.293Z,15.55
2023-04-30T23:34:12.961Z,15.50
2023-04-30T23:36:40.106Z,15.50
2023-04-30T23:39:06.674Z,15.47
2023-04-30T23:41:33.149Z,15.45
2023-04-30T23:43:59.615Z,15.42
2023-04-30T23:46:26.238Z,15.40
2023-04-30T23:48:52.893Z,15.39
2023-04-30T23:51:21.399Z,15.36
2023-04-30T23:53:48.296Z,15.37
2023-04-30T23:56:15.661Z,15.30
2023-04-30T23:58:42.125Z,15.26
